Time;durP1;ratioP1;P1;durP2;ratioP2;P2;SDS_P1;SDS_P2;PMS_P1;PMS_P2;Temp;Humidity;BMP_temperature;BMP_pressure;BME280_temperature;BME280_humidity;BME280_pressure;Samples;Min_cycle;Max_cycle;Signal;HPM_P1;HPM_P2
2021/05/13 17:17:40;;;;;;;0.85;0.10;;;;;;;;;;5075107;27;20319;-74
2021/05/13 17:20:07;;;;;;;1.38;0.90;;;;;;;;;;5072800;28;20028;-76
2021/05/13 17:22:34;;;;;;;1.45;0.68;;;;;;;;;;5072105;28;20084;-80
2021/05/13 17:25:00;;;;;;;3.38;0.40;;;;;;;;;;5088023;27;20024;-82
2021/05/13 17:27:26;;;;;;;0.82;0.20;;;;;;;;;;5086719;28;20036;-83
2021/05/13 17:29:53;;;;;;;1.38;0.28;;;;;;;;;;5058100;27;20041;-76
2021/05/13 17:32:20;;;;;;;0.52;0.43;;;;;;;;;;5060969;28;20100;-77
2021/05/13 17:34:46;;;;;;;2.80;0.25;;;;;;;;;;5063363;27;20025;-77
2021/05/13 17:37:12;;;;;;;0.20;0.13;;;;;;;;;;5057749;27;20054;-79
2021/05/13 17:39:38;;;;;;;1.20;0.85;;;;;;;;;;5060331;28;20017;-76
2021/05/13 17:42:04;;;;;;;0.55;0.22;;;;;;;;;;5070784;28;20480;-75
2021/05/13 17:44:32;;;;;;;0.30;0.20;;;;;;;;;;5095458;22;20028;-74
2021/05/13 17:46:58;;;;;;;0.30;0.30;;;;;;;;;;5013554;28;20041;-74
2021/05/13 17:49:24;;;;;;;0.10;0.10;;;;;;;;;;5024952;28;20378;-74
2021/05/13 17:51:50;;;;;;;1.13;0.20;;;;;;;;;;5016364;28;20036;-74
2021/05/13 17:54:16;;;;;;;0.45;0.25;;;;;;;;;;5005765;28;20033;-74
2021/05/13 17:56:44;;;;;;;0.40;0.20;;;;;;;;;;4986102;28;20030;-74
2021/05/13 17:59:10;;;;;;;0.38;0.17;;;;;;;;;;4986021;28;20026;-74
2021/05/13 18:01:36;;;;;;;1.08;0.10;;;;;;;;;;4994531;28;20160;-74
2021/05/13 18:04:04;;;;;;;0.20;0.20;;;;;;;;;;4984931;28;20030;-74
2021/05/13 18:06:30;;;;;;;0.52;0.20;;;;;;;;;;4991821;28;20061;-73
2021/05/13 18:08:58;;;;;;;0.30;0.20;;;;;;;;;;4985885;28;20110;-73
2021/05/13 18:11:24;;;;;;;0.30;0.20;;;;;;;;;;4987487;28;20030;-72
2021/05/13 18:13:50;;;;;;;0.38;0.10;;;;;;;;;;5005143;28;20528;-75
2021/05/13 18:16:16;;;;;;;1.50;0.20;;;;;;;;;;5002478;28;20038;-73
2021/05/13 18:18:43;;;;;;;2.90;0.20;;;;;;;;;;4985614;28;20107;-73
2021/05/13 18:21:09;;;;;;;0.52;0.40;;;;;;;;;;4985625;28;20029;-74
2021/05/13 18:23:38;;;;;;;1.00;0.45;;;;;;;;;;5005008;28;20029;-74
2021/05/13 18:26:04;;;;;;;1.40;0.30;;;;;;;;;;5004665;28;20441;-75
2021/05/13 18:28:30;;;;;;;0.50;0.20;;;;;;;;;;4994928;28;20114;-76
2021/05/13 18:30:58;;;;;;;0.30;0.20;;;;;;;;;;4974081;28;20117;-76
2021/05/13 18:33:24;;;;;;;2.78;0.40;;;;;;;;;;4991858;28;20502;-76
2021/05/13 18:35:50;;;;;;;0.60;0.30;;;;;;;;;;4991898;28;20022;-77
2021/05/13 18:38:16;;;;;;;0.40;0.30;;;;;;;;;;4992729;28;20023;-77
2021/05/13 18:40:46;;;;;;;0.20;0.20;;;;;;;;;;4993307;28;20022;-77
2021/05/13 18:43:12;;;;;;;0.30;0.20;;;;;;;;;;4977365;28;20023;-77
2021/05/13 18:45:38;;;;;;;0.80;0.30;;;;;;;;;;4974968;28;20050;-76
2021/05/13 18:48:04;;;;;;;0.25;0.17;;;;;;;;;;4974760;28;20035;-79
2021/05/13 18:50:31;;;;;;;0.65;0.20;;;;;;;;;;4976472;28;20080;-79
2021/05/13 18:53:00;;;;;;;0.52;0.20;;;;;;;;;;4988743;28;20027;-76
2021/05/13 18:55:27;;;;;;;0.30;0.30;;;;;;;;;;4990443;28;20026;-76
2021/05/13 18:57:54;;;;;;;0.55;0.30;;;;;;;;;;4981658;28;20015;-76
2021/05/13 19:00:21;;;;;;;0.65;0.20;;;;;;;;;;4980666;28;20027;-76
2021/05/13 19:02:47;;;;;;;1.88;0.30;;;;;;;;;;4983650;28;20033;-77
2021/05/13 19:05:14;;;;;;;0.90;0.40;;;;;;;;;;4981218;28;20030;-76
2021/05/13 19:07:40;;;;;;;1.42;0.32;;;;;;;;;;4981670;28;20038;-77
2021/05/13 19:10:12;;;;;;;0.82;0.38;;;;;;;;;;4975558;28;20035;-76
2021/05/13 19:12:38;;;;;;;0.52;0.40;;;;;;;;;;4976300;28;20033;-76
2021/05/13 19:15:05;;;;;;;1.17;0.43;;;;;;;;;;4987985;28;20521;-77
2021/05/13 19:17:31;;;;;;;0.57;0.40;;;;;;;;;;4991832;28;20091;-76
2021/05/13 19:19:57;;;;;;;0.60;0.40;;;;;;;;;;4990559;28;20030;-78
2021/05/13 19:22:23;;;;;;;1.38;0.40;;;;;;;;;;4994910;28;20113;-77
2021/05/13 19:24:49;;;;;;;0.80;0.30;;;;;;;;;;4979690;28;20035;-76
2021/05/13 19:27:16;;;;;;;1.20;0.40;;;;;;;;;;4978530;28;20023;-77
2021/05/13 19:37:30;;;;;;;1.42;0.50;;;;;;;;;;4984748;28;20041;-76
2021/05/13 19:39:58;;;;;;;1.20;0.50;;;;;;;;;;4970824;28;20391;-76
2021/05/13 19:42:24;;;;;;;0.75;0.50;;;;;;;;;;4977452;28;20029;-79
2021/05/13 19:44:50;;;;;;;2.35;0.70;;;;;;;;;;4986842;28;20019;-78
2021/05/13 19:47:16;;;;;;;1.65;0.55;;;;;;;;;;4987104;28;20056;-79
2021/05/13 19:49:42;;;;;;;1.40;0.70;;;;;;;;;;4974671;28;20027;-75
2021/05/13 19:52:08;;;;;;;1.27;0.63;;;;;;;;;;4988737;28;20117;-75
2021/05/13 19:54:34;;;;;;;0.68;0.40;;;;;;;;;;4990572;28;20421;-75
2021/05/13 19:57:04;;;;;;;1.00;0.60;;;;;;;;;;4986821;28;20031;-74
2021/05/13 19:59:31;;;;;;;0.90;0.60;;;;;;;;;;4970979;28;20027;-74
2021/05/13 20:02:11;;;;;;;0.90;0.60;;;;;;;;;;4980798;28;20034;-75
2021/05/13 20:07:15;;;;;;;1.38;0.52;;;;;;;;;;4985905;28;20026;-75
2021/05/13 20:09:54;;;;;;;0.85;0.52;;;;;;;;;;4970584;28;20514;-75
2021/05/13 20:12:20;;;;;;;0.68;0.65;;;;;;;;;;4973287;28;20257;-75
2021/05/13 20:14:46;;;;;;;1.58;0.77;;;;;;;;;;4980308;28;20022;-75
2021/05/13 20:17:13;;;;;;;1.30;0.50;;;;;;;;;;4980523;28;20061;-74
2021/05/13 20:19:39;;;;;;;1.85;0.50;;;;;;;;;;4980018;28;20118;-76
2021/05/13 20:22:17;;;;;;;1.58;0.90;;;;;;;;;;4977560;28;20019;-75
2021/05/13 20:25:01;;;;;;;0.70;0.60;;;;;;;;;;4979423;28;20591;-76
2021/05/13 20:28:10;;;;;;;0.50;0.50;;;;;;;;;;4979679;28;20045;-75
2021/05/13 20:30:20;;;;;;;2.35;0.95;;;;;;;;;;4977312;28;20038;-75
2021/05/13 20:32:46;;;;;;;1.70;0.80;;;;;;;;;;4980738;28;20019;-76
2021/05/13 20:35:13;;;;;;;1.40;0.75;;;;;;;;;;4979026;28;20058;-76
2021/05/13 20:37:44;;;;;;;2.85;0.93;;;;;;;;;;4963820;28;20039;-75
2021/05/13 20:40:12;;;;;;;1.13;0.80;;;;;;;;;;4975687;28;20026;-73
2021/05/13 20:42:39;;;;;;;1.38;0.60;;;;;;;;;;4979369;28;20117;-77
2021/05/13 20:45:06;;;;;;;6.22;0.80;;;;;;;;;;4977003;28;20026;-74
2021/05/13 20:47:34;;;;;;;3.03;1.10;;;;;;;;;;4977692;28;20058;-75
2021/05/13 20:50:02;;;;;;;1.92;0.70;;;;;;;;;;4979412;28;20099;-76
2021/05/13 21:00:58;;;;;;;2.90;1.15;;;;;;;;;;5030507;28;20442;-75
2021/05/13 21:03:30;;;;;;;1.60;0.90;;;;;;;;;;4996150;28;20418;-74
2021/05/13 21:06:10;;;;;;;3.55;0.98;;;;;;;;;;4971747;28;20031;-74
2021/05/13 21:08:41;;;;;;;5.10;0.98;;;;;;;;;;4970147;28;20035;-75
2021/05/13 21:11:19;;;;;;;1.02;0.90;;;;;;;;;;4970421;28;20452;-75
2021/05/13 21:30:00;;;;;;;5.85;1.20;;;;;;;;;;4979211;28;20526;-75
2021/05/13 21:32:26;;;;;;;6.28;1.10;;;;;;;;;;4982143;28;20510;-75
2021/05/13 21:34:52;;;;;;;2.92;1.05;;;;;;;;;;4982369;28;20026;-74
2021/05/13 21:37:18;;;;;;;2.65;1.20;;;;;;;;;;4989600;28;20403;-75
2021/05/13 21:39:44;;;;;;;4.45;1.00;;;;;;;;;;4989424;28;20034;-73
2021/05/13 21:42:10;;;;;;;1.95;1.10;;;;;;;;;;4983143;28;20125;-72
2021/05/13 21:44:36;;;;;;;0.95;0.77;;;;;;;;;;4982848;28;20664;-72
2021/05/13 21:47:03;;;;;;;1.33;1.00;;;;;;;;;;4987955;28;20548;-73
2021/05/13 21:49:30;;;;;;;1.35;1.25;;;;;;;;;;4989353;28;20051;-74
2021/05/13 21:51:56;;;;;;;2.60;1.00;;;;;;;;;;4971257;28;20510;-73
2021/05/13 21:54:24;;;;;;;5.60;1.25;;;;;;;;;;4973797;28;20023;-72
2021/05/13 21:56:50;;;;;;;1.55;1.00;;;;;;;;;;4980864;28;20043;-72
2021/05/13 21:59:16;;;;;;;2.35;1.23;;;;;;;;;;4969857;28;20023;-73
2021/05/13 22:01:42;;;;;;;2.38;1.27;;;;;;;;;;4976047;28;20039;-72
2021/05/13 22:04:08;;;;;;;1.70;1.00;;;;;;;;;;4989846;28;20108;-74
2021/05/13 22:06:34;;;;;;;1.92;1.10;;;;;;;;;;4972949;28;20425;-72
2021/05/13 22:09:00;;;;;;;2.20;1.13;;;;;;;;;;4972054;28;20031;-73
2021/05/13 22:11:26;;;;;;;3.80;1.20;;;;;;;;;;4972651;28;20053;-72
2021/05/13 22:13:52;;;;;;;8.00;7.20;;;;;;;;;;4972282;28;20060;-72
2021/05/13 22:16:18;;;;;;;9.07;8.15;;;;;;;;;;4973063;28;20039;-73
2021/05/13 22:18:45;;;;;;;5.72;3.35;;;;;;;;;;4972716;28;20027;-73
2021/05/13 22:21:11;;;;;;;6.68;4.03;;;;;;;;;;4972009;28;20023;-72
2021/05/13 22:23:46;;;;;;;5.05;3.33;;;;;;;;;;4971566;28;20076;-72
2021/05/13 22:26:15;;;;;;;2.95;2.20;;;;;;;;;;4990523;28;20034;-73
2021/05/13 22:28:50;;;;;;;2.45;1.33;;;;;;;;;;4992216;28;20023;-72
2021/05/13 22:31:16;;;;;;;2.22;1.60;;;;;;;;;;4991562;28;20034;-73
2021/05/13 22:33:42;;;;;;;2.15;1.10;;;;;;;;;;4992349;28;20472;-74
2021/05/13 22:36:08;;;;;;;3.92;1.13;;;;;;;;;;4990784;28;20065;-73
2021/05/13 22:38:34;;;;;;;1.70;1.23;;;;;;;;;;4991863;28;20065;-72
2021/05/13 22:41:01;;;;;;;2.17;1.30;;;;;;;;;;4991387;28;20479;-73
2021/05/13 22:43:27;;;;;;;3.15;1.70;;;;;;;;;;4976950;28;20386;-75
2021/05/13 22:45:53;;;;;;;4.78;2.33;;;;;;;;;;4979790;28;20042;-73
2021/05/13 22:48:25;;;;;;;5.97;3.05;;;;;;;;;;4972383;28;20564;-73
2021/05/13 22:50:52;;;;;;;5.20;3.25;;;;;;;;;;4971563;28;20100;-73
2021/05/13 22:53:24;;;;;;;6.82;4.18;;;;;;;;;;4972354;28;20121;-74
2021/05/13 22:56:01;;;;;;;5.77;2.27;;;;;;;;;;4986226;28;20649;-73
2021/05/13 22:58:27;;;;;;;3.33;1.98;;;;;;;;;;4991775;28;20273;-73
2021/05/13 23:00:53;;;;;;;3.17;2.00;;;;;;;;;;4989152;28;20388;-73
2021/05/13 23:03:19;;;;;;;2.53;1.60;;;;;;;;;;4985327;28;20031;-73
2021/05/13 23:05:45;;;;;;;4.40;1.90;;;;;;;;;;4984953;28;20488;-73
2021/05/13 23:08:11;;;;;;;3.60;2.28;;;;;;;;;;4991287;28;20065;-73
2021/05/13 23:10:37;;;;;;;5.28;2.30;;;;;;;;;;4990978;28;20045;-74
2021/05/13 23:13:08;;;;;;;3.55;2.55;;;;;;;;;;4991196;28;20041;-73
